sensor_id;sensor_type;location;lat;lon;timestamp;temperature;humidity
14962;DHT22;56489;53.166;10.864;2022-10-16T00:01:21;13.40;99.90
14962;DHT22;56489;53.166;10.864;2022-10-16T00:03:50;13.40;99.90
14962;DHT22;56489;53.166;10.864;2022-10-16T00:06:18;13.30;99.90
14962;DHT22;56489;53.166;10.864;2022-10-16T00:08:47;13.30;99.90
14962;DHT22;56489;53.166;10.864;2022-10-16T00:11:17;13.20;99.90
14962;DHT22;56489;53.166;10.864;2022-10-16T00:13:46;13.20;99.90
14962;DHT22;56489;53.166;10.864;2022-10-16T00:16:14;13.10;99.90
14962;DHT22;56489;53.166;10.864;2022-10-16T00:18:41;13.10;99.90
14962;DHT22;56489;53.166;10.864;2022-10-16T00:21:12;13.10;99.90
14962;DHT22;56489;53.166;10.864;2022-10-16T00:23:39;13.00;99.90
14962;DHT22;56489;53.166;10.864;2022-10-16T00:26:09;13.00;99.90
14962;DHT22;56489;53.166;10.864;2022-10-16T00:28:37;12.90;99.90
14962;DHT22;56489;53.166;10.864;2022-10-16T00:31:10;12.90;99.90
14962;DHT22;56489;53.166;10.864;2022-10-16T00:33:39;12.80;99.90
14962;DHT22;56489;53.166;10.864;2022-10-16T00:36:07;12.80;99.90
14962;DHT22;56489;53.166;10.864;2022-10-16T00:38:35;12.70;99.90
14962;DHT22;56489;53.166;10.864;2022-10-16T00:41:06;12.70;99.90
14962;DHT22;56489;53.166;10.864;2022-10-16T00:46:05;12.60;99.90
14962;DHT22;56489;53.166;10.864;2022-10-16T00:48:32;12.60;99.90
14962;DHT22;56489;53.166;10.864;2022-10-16T00:50:59;12.60;99.90
14962;DHT22;56489;53.166;10.864;2022-10-16T00:53:27;12.50;99.90
14962;DHT22;56489;53.166;10.864;2022-10-16T00:55:54;12.50;99.90
14962;DHT22;56489;53.166;10.864;2022-10-16T00:58:21;12.40;99.90
14962;DHT22;56489;53.166;10.864;2022-10-16T01:00:48;12.40;99.90
14962;DHT22;56489;53.166;10.864;2022-10-16T01:03:30;12.30;99.90
14962;DHT22;56489;53.166;10.864;2022-10-16T01:09:06;12.20;99.90
14962;DHT22;56489;53.166;10.864;2022-10-16T01:11:46;12.20;99.90
14962;DHT22;56489;53.166;10.864;2022-10-16T01:14:22;12.20;99.90
14962;DHT22;56489;53.166;10.864;2022-10-16T01:17:06;12.20;99.90
14962;DHT22;56489;53.166;10.864;2022-10-16T01:20:03;12.10;99.90
14962;DHT22;56489;53.166;10.864;2022-10-16T01:22:43;12.10;99.90
14962;DHT22;56489;53.166;10.864;2022-10-16T01:25:19;12.10;99.90
14962;DHT22;56489;53.166;10.864;2022-10-16T01:27:50;12.00;99.90
14962;DHT22;56489;53.166;10.864;2022-10-16T01:30:26;12.00;99.90
14962;DHT22;56489;53.166;10.864;2022-10-16T01:33:01;12.00;99.90
14962;DHT22;56489;53.166;10.864;2022-10-16T01:35:39;12.00;99.90
14962;DHT22;56489;53.166;10.864;2022-10-16T01:38:14;12.00;99.90
14962;DHT22;56489;53.166;10.864;2022-10-16T01:40:50;12.00;99.90
14962;DHT22;56489;53.166;10.864;2022-10-16T01:43:22;12.00;99.90
14962;DHT22;56489;53.166;10.864;2022-10-16T01:45:51;12.00;99.90
14962;DHT22;56489;53.166;10.864;2022-10-16T01:48:19;12.00;99.90
14962;DHT22;56489;53.166;10.864;2022-10-16T01:51:02;12.00;99.90
14962;DHT22;56489;53.166;10.864;2022-10-16T01:53:30;12.00;99.90
14962;DHT22;56489;53.166;10.864;2022-10-16T01:55:59;11.90;99.90
14962;DHT22;56489;53.166;10.864;2022-10-16T01:58:28;11.90;99.90
14962;DHT22;56489;53.166;10.864;2022-10-16T02:01:01;11.90;99.90
14962;DHT22;56489;53.166;10.864;2022-10-16T02:03:29;11.90;99.90
14962;DHT22;56489;53.166;10.864;2022-10-16T02:05:57;11.90;99.90
14962;DHT22;56489;53.166;10.864;2022-10-16T02:08:27;12.40;99.90
14962;DHT22;56489;53.166;10.864;2022-10-16T02:10:55;13.20;99.90
14962;DHT22;56489;53.166;10.864;2022-10-16T02:13:30;11.70;99.90
14962;DHT22;56489;53.166;10.864;2022-10-16T02:15:59;11.60;99.90
14962;DHT22;56489;53.166;10.864;2022-10-16T02:18:26;11.60;99.90
14962;DHT22;56489;53.166;10.864;2022-10-16T02:24:12;11.50;99.90
14962;DHT22;56489;53.166;10.864;2022-10-16T02:26:48;11.40;99.90
14962;DHT22;56489;53.166;10.864;2022-10-16T02:29:20;11.30;99.90
14962;DHT22;56489;53.166;10.864;2022-10-16T02:31:51;11.20;99.90
14962;DHT22;56489;53.166;10.864;2022-10-16T02:34:21;11.10;99.90
14962;DHT22;56489;53.166;10.864;2022-10-16T02:36:51;11.10;99.90
14962;DHT22;56489;53.166;10.864;2022-10-16T02:39:19;11.00;99.90
14962;DHT22;56489;53.166;10.864;2022-10-16T02:41:47;10.90;99.90
14962;DHT22;56489;53.166;10.864;2022-10-16T02:44:14;10.90;99.90
14962;DHT22;56489;53.166;10.864;2022-10-16T02:46:41;10.80;99.90
14962;DHT22;56489;53.166;10.864;2022-10-16T02:49:08;10.80;99.90
14962;DHT22;56489;53.166;10.864;2022-10-16T02:51:35;10.80;99.90
14962;DHT22;56489;53.166;10.864;2022-10-16T02:54:02;10.70;99.90
14962;DHT22;56489;53.166;10.864;2022-10-16T02:56:29;10.70;99.90
14962;DHT22;56489;53.166;10.864;2022-10-16T02:58:57;10.70;99.90
14962;DHT22;56489;53.166;10.864;2022-10-16T03:01:24;10.70;99.90
14962;DHT22;56489;53.166;10.864;2022-10-16T03:03:51;10.60;99.90
14962;DHT22;56489;53.166;10.864;2022-10-16T03:06:18;10.60;99.90
14962;DHT22;56489;53.166;10.864;2022-10-16T03:08:45;11.40;99.90
14962;DHT22;56489;53.166;10.864;2022-10-16T03:11:12;10.50;99.90
14962;DHT22;56489;53.166;10.864;2022-10-16T03:13:39;10.50;99.90
14962;DHT22;56489;53.166;10.864;2022-10-16T03:16:05;10.50;99.90
14962;DHT22;56489;53.166;10.864;2022-10-16T03:18:32;10.50;99.90
14962;DHT22;56489;53.166;10.864;2022-10-16T03:20:59;10.50;99.90
14962;DHT22;56489;53.166;10.864;2022-10-16T03:23:26;10.60;99.90
14962;DHT22;56489;53.166;10.864;2022-10-16T03:25:53;10.60;99.90
14962;DHT22;56489;53.166;10.864;2022-10-16T03:28:20;10.70;99.90
14962;DHT22;56489;53.166;10.864;2022-10-16T03:30:47;10.70;99.90
14962;DHT22;56489;53.166;10.864;2022-10-16T03:33:14;10.80;99.90
14962;DHT22;56489;53.166;10.864;2022-10-16T03:35:41;10.80;99.90
14962;DHT22;56489;53.166;10.864;2022-10-16T03:38:08;10.80;99.90
14962;DHT22;56489;53.166;10.864;2022-10-16T03:40:35;10.90;99.90
14962;DHT22;56489;53.166;10.864;2022-10-16T03:43:01;10.90;99.90
14962;DHT22;56489;53.166;10.864;2022-10-16T03:45:28;10.90;99.90
14962;DHT22;56489;53.166;10.864;2022-10-16T03:47:55;11.00;99.90
14962;DHT22;56489;53.166;10.864;2022-10-16T03:50:22;11.00;99.90
14962;DHT22;56489;53.166;10.864;2022-10-16T03:52:52;11.00;99.90
14962;DHT22;56489;53.166;10.864;2022-10-16T03:55:19;11.00;99.90
14962;DHT22;56489;53.166;10.864;2022-10-16T03:57:46;11.00;99.90
14962;DHT22;56489;53.166;10.864;2022-10-16T04:00:13;11.00;99.90
14962;DHT22;56489;53.166;10.864;2022-10-16T04:02:40;11.00;99.90
14962;DHT22;56489;53.166;10.864;2022-10-16T04:05:07;11.10;99.90
14962;DHT22;56489;53.166;10.864;2022-10-16T04:07:34;11.00;99.90
14962;DHT22;56489;53.166;10.864;2022-10-16T04:10:01;11.00;99.90
14962;DHT22;56489;53.166;10.864;2022-10-16T04:12:28;11.00;99.90
14962;DHT22;56489;53.166;10.864;2022-10-16T04:14:55;11.10;99.90
14962;DHT22;56489;53.166;10.864;2022-10-16T04:17:22;11.00;99.90
14962;DHT22;56489;53.166;10.864;2022-10-16T04:19:49;11.00;99.90
14962;DHT22;56489;53.166;10.864;2022-10-16T04:22:16;11.10;99.90
14962;DHT22;56489;53.166;10.864;2022-10-16T04:24:46;11.00;99.90
14962;DHT22;56489;53.166;10.864;2022-10-16T04:27:12;11.00;99.90
14962;DHT22;56489;53.166;10.864;2022-10-16T04:29:39;11.00;99.90
14962;DHT22;56489;53.166;10.864;2022-10-16T04:32:08;11.00;99.90
14962;DHT22;56489;53.166;10.864;2022-10-16T04:34:35;11.00;99.90
14962;DHT22;56489;53.166;10.864;2022-10-16T04:37:02;11.00;99.90
14962;DHT22;56489;53.166;10.864;2022-10-16T04:39:28;10.90;99.90
14962;DHT22;56489;53.166;10.864;2022-10-16T04:41:55;10.90;99.90
14962;DHT22;56489;53.166;10.864;2022-10-16T04:44:22;10.90;99.90
14962;DHT22;56489;53.166;10.864;2022-10-16T04:46:52;10.80;99.90
14962;DHT22;56489;53.166;10.864;2022-10-16T04:49:19;10.90;99.90
14962;DHT22;56489;53.166;10.864;2022-10-16T04:51:46;10.90;99.90
14962;DHT22;56489;53.166;10.864;2022-10-16T04:54:13;10.80;99.90
14962;DHT22;56489;53.166;10.864;2022-10-16T04:56:39;10.80;99.90
14962;DHT22;56489;53.166;10.864;2022-10-16T04:59:14;10.80;99.90
14962;DHT22;56489;53.166;10.864;2022-10-16T05:01:41;10.90;99.90
14962;DHT22;56489;53.166;10.864;2022-10-16T05:04:09;10.90;99.90
14962;DHT22;56489;53.166;10.864;2022-10-16T05:06:36;11.00;99.90
14962;DHT22;56489;53.166;10.864;2022-10-16T05:09:05;11.00;99.90
14962;DHT22;56489;53.166;10.864;2022-10-16T05:11:32;11.00;99.90
14962;DHT22;56489;53.166;10.864;2022-10-16T05:13:59;11.00;99.90
14962;DHT22;56489;53.166;10.864;2022-10-16T05:16:26;11.00;99.90
14962;DHT22;56489;53.166;10.864;2022-10-16T05:18:54;11.10;99.90
14962;DHT22;56489;53.166;10.864;2022-10-16T05:21:35;11.10;99.90
14962;DHT22;56489;53.166;10.864;2022-10-16T05:24:02;11.10;99.90
14962;DHT22;56489;53.166;10.864;2022-10-16T05:26:29;11.00;99.90
14962;DHT22;56489;53.166;10.864;2022-10-16T05:28:56;11.10;99.90
14962;DHT22;56489;53.166;10.864;2022-10-16T05:31:23;11.10;99.90
14962;DHT22;56489;53.166;10.864;2022-10-16T05:33:49;11.00;99.90
14962;DHT22;56489;53.166;10.864;2022-10-16T05:36:16;11.00;99.90
14962;DHT22;56489;53.166;10.864;2022-10-16T05:38:44;11.00;99.90
14962;DHT22;56489;53.166;10.864;2022-10-16T05:41:11;10.90;99.90
14962;DHT22;56489;53.166;10.864;2022-10-16T05:43:38;10.90;99.90
14962;DHT22;56489;53.166;10.864;2022-10-16T05:46:06;10.80;99.90
14962;DHT22;56489;53.166;10.864;2022-10-16T05:48:32;10.80;99.90
14962;DHT22;56489;53.166;10.864;2022-10-16T05:51:05;10.70;99.90
14962;DHT22;56489;53.166;10.864;2022-10-16T05:53:37;10.70;99.90
14962;DHT22;56489;53.166;10.864;2022-10-16T05:56:04;10.60;99.90
14962;DHT22;56489;53.166;10.864;2022-10-16T05:58:34;10.60;99.90
14962;DHT22;56489;53.166;10.864;2022-10-16T06:01:04;10.60;99.90
14962;DHT22;56489;53.166;10.864;2022-10-16T06:03:32;10.60;99.90
14962;DHT22;56489;53.166;10.864;2022-10-16T06:05:59;10.60;99.90
14962;DHT22;56489;53.166;10.864;2022-10-16T06:08:25;10.60;99.90
14962;DHT22;56489;53.166;10.864;2022-10-16T06:11:07;10.60;99.90
14962;DHT22;56489;53.166;10.864;2022-10-16T06:13:34;10.60;99.90
14962;DHT22;56489;53.166;10.864;2022-10-16T06:16:02;10.50;99.90
14962;DHT22;56489;53.166;10.864;2022-10-16T06:18:29;10.60;99.90
14962;DHT22;56489;53.166;10.864;2022-10-16T06:20:56;10.60;99.90
14962;DHT22;56489;53.166;10.864;2022-10-16T06:23:24;10.60;99.90
14962;DHT22;56489;53.166;10.864;2022-10-16T06:25:51;10.50;99.90
14962;DHT22;56489;53.166;10.864;2022-10-16T06:28:18;10.50;99.90
14962;DHT22;56489;53.166;10.864;2022-10-16T06:30:45;10.50;99.90
14962;DHT22;56489;53.166;10.864;2022-10-16T06:33:12;10.60;99.90
14962;DHT22;56489;53.166;10.864;2022-10-16T06:35:39;10.60;99.90
14962;DHT22;56489;53.166;10.864;2022-10-16T06:38:05;10.60;99.90
14962;DHT22;56489;53.166;10.864;2022-10-16T06:40:33;10.70;99.90
14962;DHT22;56489;53.166;10.864;2022-10-16T06:42:59;10.80;99.90
14962;DHT22;56489;53.166;10.864;2022-10-16T06:45:26;10.90;99.90
14962;DHT22;56489;53.166;10.864;2022-10-16T06:47:54;11.00;99.90
14962;DHT22;56489;53.166;10.864;2022-10-16T06:50:21;11.10;99.90
14962;DHT22;56489;53.166;10.864;2022-10-16T06:52:48;11.20;99.90
14962;DHT22;56489;53.166;10.864;2022-10-16T06:55:15;11.30;99.90
14962;DHT22;56489;53.166;10.864;2022-10-16T06:57:46;11.40;99.90
14962;DHT22;56489;53.166;10.864;2022-10-16T07:00:14;11.50;99.90
14962;DHT22;56489;53.166;10.864;2022-10-16T07:02:41;11.60;99.90
14962;DHT22;56489;53.166;10.864;2022-10-16T07:05:08;11.60;99.90
14962;DHT22;56489;53.166;10.864;2022-10-16T07:07:35;11.70;99.90
14962;DHT22;56489;53.166;10.864;2022-10-16T07:10:02;11.70;99.90
14962;DHT22;56489;53.166;10.864;2022-10-16T07:12:29;11.80;99.90
14962;DHT22;56489;53.166;10.864;2022-10-16T07:14:55;11.90;99.90
14962;DHT22;56489;53.166;10.864;2022-10-16T07:17:22;11.90;99.90
14962;DHT22;56489;53.166;10.864;2022-10-16T07:19:49;11.90;99.90
14962;DHT22;56489;53.166;10.864;2022-10-16T07:22:19;12.00;99.90
14962;DHT22;56489;53.166;10.864;2022-10-16T07:24:46;12.00;99.90
14962;DHT22;56489;53.166;10.864;2022-10-16T07:27:18;12.10;99.90
14962;DHT22;56489;53.166;10.864;2022-10-16T07:29:45;12.10;99.90
14962;DHT22;56489;53.166;10.864;2022-10-16T07:32:12;12.20;99.90
14962;DHT22;56489;53.166;10.864;2022-10-16T07:34:38;12.20;99.90
14962;DHT22;56489;53.166;10.864;2022-10-16T07:37:05;12.30;99.90
14962;DHT22;56489;53.166;10.864;2022-10-16T07:39:32;12.40;99.90
14962;DHT22;56489;53.166;10.864;2022-10-16T07:41:59;12.50;99.90
14962;DHT22;56489;53.166;10.864;2022-10-16T07:44:26;12.50;99.90
14962;DHT22;56489;53.166;10.864;2022-10-16T07:46:53;12.60;99.90
14962;DHT22;56489;53.166;10.864;2022-10-16T07:49:19;12.60;99.90
14962;DHT22;56489;53.166;10.864;2022-10-16T07:51:47;12.70;99.90
14962;DHT22;56489;53.166;10.864;2022-10-16T07:54:13;12.80;99.90
14962;DHT22;56489;53.166;10.864;2022-10-16T07:56:40;12.80;99.90
14962;DHT22;56489;53.166;10.864;2022-10-16T07:59:09;12.90;99.90
14962;DHT22;56489;53.166;10.864;2022-10-16T08:01:36;13.00;99.90
14962;DHT22;56489;53.166;10.864;2022-10-16T08:04:03;13.10;99.90
14962;DHT22;56489;53.166;10.864;2022-10-16T08:06:36;13.10;99.90
14962;DHT22;56489;53.166;10.864;2022-10-16T08:09:03;13.20;99.90
14962;DHT22;56489;53.166;10.864;2022-10-16T08:11:30;13.20;99.90
14962;DHT22;56489;53.166;10.864;2022-10-16T08:13:56;13.20;99.90
14962;DHT22;56489;53.166;10.864;2022-10-16T08:16:24;13.30;99.90
14962;DHT22;56489;53.166;10.864;2022-10-16T08:18:50;13.30;99.90
14962;DHT22;56489;53.166;10.864;2022-10-16T08:21:21;13.30;99.90
14962;DHT22;56489;53.166;10.864;2022-10-16T08:23:50;13.40;99.90
14962;DHT22;56489;53.166;10.864;2022-10-16T08:26:24;13.50;99.90
14962;DHT22;56489;53.166;10.864;2022-10-16T08:28:51;13.60;99.90
14962;DHT22;56489;53.166;10.864;2022-10-16T08:31:21;13.70;99.90
14962;DHT22;56489;53.166;10.864;2022-10-16T08:33:48;13.80;99.90
14962;DHT22;56489;53.166;10.864;2022-10-16T08:36:16;14.00;99.90
14962;DHT22;56489;53.166;10.864;2022-10-16T08:38:43;14.20;99.90
14962;DHT22;56489;53.166;10.864;2022-10-16T08:44:43;14.50;99.90
14962;DHT22;56489;53.166;10.864;2022-10-16T08:50:02;15.00;99.90
14962;DHT22;56489;53.166;10.864;2022-10-16T08:52:39;15.10;99.90
14962;DHT22;56489;53.166;10.864;2022-10-16T08:58:02;15.50;99.90
14962;DHT22;56489;53.166;10.864;2022-10-16T09:00:38;15.70;99.90
14962;DHT22;56489;53.166;10.864;2022-10-16T09:06:25;15.90;99.90
14962;DHT22;56489;53.166;10.864;2022-10-16T09:11:46;16.10;99.90
14962;DHT22;56489;53.166;10.864;2022-10-16T09:22:28;16.10;99.90
14962;DHT22;56489;53.166;10.864;2022-10-16T09:25:00;16.00;99.90
14962;DHT22;56489;53.166;10.864;2022-10-16T09:27:27;16.00;99.90
14962;DHT22;56489;53.166;10.864;2022-10-16T09:29:54;16.00;99.90
14962;DHT22;56489;53.166;10.864;2022-10-16T09:32:25;16.10;99.90
14962;DHT22;56489;53.166;10.864;2022-10-16T09:34:55;16.10;99.90
14962;DHT22;56489;53.166;10.864;2022-10-16T09:37:24;16.10;99.90
14962;DHT22;56489;53.166;10.864;2022-10-16T09:39:54;16.10;99.90
14962;DHT22;56489;53.166;10.864;2022-10-16T09:42:30;16.10;99.90
14962;DHT22;56489;53.166;10.864;2022-10-16T09:44:58;16.10;99.90
14962;DHT22;56489;53.166;10.864;2022-10-16T09:47:29;16.10;99.90
14962;DHT22;56489;53.166;10.864;2022-10-16T09:50:03;16.10;99.90
14962;DHT22;56489;53.166;10.864;2022-10-16T09:52:33;16.10;99.90
14962;DHT22;56489;53.166;10.864;2022-10-16T09:55:15;16.20;99.90
14962;DHT22;56489;53.166;10.864;2022-10-16T09:57:51;16.20;99.90
14962;DHT22;56489;53.166;10.864;2022-10-16T10:00:20;16.20;99.90
14962;DHT22;56489;53.166;10.864;2022-10-16T10:02:47;16.20;99.90
14962;DHT22;56489;53.166;10.864;2022-10-16T10:05:26;16.30;99.90
14962;DHT22;56489;53.166;10.864;2022-10-16T10:08:02;16.30;99.90
14962;DHT22;56489;53.166;10.864;2022-10-16T10:10:41;16.40;99.90
14962;DHT22;56489;53.166;10.864;2022-10-16T10:13:22;16.40;99.90
14962;DHT22;56489;53.166;10.864;2022-10-16T10:15:51;16.40;99.90
14962;DHT22;56489;53.166;10.864;2022-10-16T10:18:19;16.50;99.90
14962;DHT22;56489;53.166;10.864;2022-10-16T10:21:01;16.50;99.90
14962;DHT22;56489;53.166;10.864;2022-10-16T10:23:29;16.60;99.90
14962;DHT22;56489;53.166;10.864;2022-10-16T10:26:14;16.60;99.90
14962;DHT22;56489;53.166;10.864;2022-10-16T10:28:55;16.70;99.90
14962;DHT22;56489;53.166;10.864;2022-10-16T10:31:33;16.70;99.90
14962;DHT22;56489;53.166;10.864;2022-10-16T10:34:41;16.80;99.90
14962;DHT22;56489;53.166;10.864;2022-10-16T10:42:35;16.90;99.90
14962;DHT22;56489;53.166;10.864;2022-10-16T10:45:17;16.90;99.90
14962;DHT22;56489;53.166;10.864;2022-10-16T10:48:06;16.90;99.90
14962;DHT22;56489;53.166;10.864;2022-10-16T10:50:56;17.00;99.90
14962;DHT22;56489;53.166;10.864;2022-10-16T10:53:45;17.00;99.90
14962;DHT22;56489;53.166;10.864;2022-10-16T11:07:25;17.20;99.90
14962;DHT22;56489;53.166;10.864;2022-10-16T11:09:59;17.20;99.90
14962;DHT22;56489;53.166;10.864;2022-10-16T11:12:42;17.20;99.90
14962;DHT22;56489;53.166;10.864;2022-10-16T11:15:21;17.20;99.90
14962;DHT22;56489;53.166;10.864;2022-10-16T11:18:16;17.20;99.90
14962;DHT22;56489;53.166;10.864;2022-10-16T11:20:45;17.20;99.90
14962;DHT22;56489;53.166;10.864;2022-10-16T11:23:18;17.20;99.90
14962;DHT22;56489;53.166;10.864;2022-10-16T11:25:48;17.20;99.90
14962;DHT22;56489;53.166;10.864;2022-10-16T11:33:47;17.20;99.90
14962;DHT22;56489;53.166;10.864;2022-10-16T11:36:20;17.20;99.90
14962;DHT22;56489;53.166;10.864;2022-10-16T11:41:32;17.30;99.90
14962;DHT22;56489;53.166;10.864;2022-10-16T11:44:26;17.40;99.90
14962;DHT22;56489;53.166;10.864;2022-10-16T11:55:53;17.40;99.90
14962;DHT22;56489;53.166;10.864;2022-10-16T11:58:31;17.40;99.90
14962;DHT22;56489;53.166;10.864;2022-10-16T12:04:01;17.40;99.90
14962;DHT22;56489;53.166;10.864;2022-10-16T12:06:58;17.40;99.90
14962;DHT22;56489;53.166;10.864;2022-10-16T12:09:28;17.40;99.90
14962;DHT22;56489;53.166;10.864;2022-10-16T12:11:58;17.40;99.90
14962;DHT22;56489;53.166;10.864;2022-10-16T12:14:36;17.40;99.90
14962;DHT22;56489;53.166;10.864;2022-10-16T12:17:27;17.50;99.90
14962;DHT22;56489;53.166;10.864;2022-10-16T12:20:18;17.60;99.90
14962;DHT22;56489;53.166;10.864;2022-10-16T12:22:52;17.60;99.90
14962;DHT22;56489;53.166;10.864;2022-10-16T12:25:34;17.70;99.90
14962;DHT22;56489;53.166;10.864;2022-10-16T12:28:06;17.80;99.90
14962;DHT22;56489;53.166;10.864;2022-10-16T12:30:52;17.90;99.90
14962;DHT22;56489;53.166;10.864;2022-10-16T12:33:26;17.90;99.90
14962;DHT22;56489;53.166;10.864;2022-10-16T12:35:53;18.00;99.90
14962;DHT22;56489;53.166;10.864;2022-10-16T12:38:28;18.00;99.90
14962;DHT22;56489;53.166;10.864;2022-10-16T12:41:05;17.90;99.90
14962;DHT22;56489;53.166;10.864;2022-10-16T12:43:41;17.90;99.90
14962;DHT22;56489;53.166;10.864;2022-10-16T12:48:37;17.90;99.90
14962;DHT22;56489;53.166;10.864;2022-10-16T12:51:25;17.80;99.90
14962;DHT22;56489;53.166;10.864;2022-10-16T12:54:02;17.80;99.90
14962;DHT22;56489;53.166;10.864;2022-10-16T13:08:02;17.60;99.90
14962;DHT22;56489;53.166;10.864;2022-10-16T13:13:24;17.70;99.90
14962;DHT22;56489;53.166;10.864;2022-10-16T13:16:05;17.80;99.90
14962;DHT22;56489;53.166;10.864;2022-10-16T13:18:59;18.00;99.90
14962;DHT22;56489;53.166;10.864;2022-10-16T13:21:51;18.10;99.90
14962;DHT22;56489;53.166;10.864;2022-10-16T13:27:35;18.20;99.90
14962;DHT22;56489;53.166;10.864;2022-10-16T13:30:13;18.30;99.90
14962;DHT22;56489;53.166;10.864;2022-10-16T13:32:48;18.40;99.90
14962;DHT22;56489;53.166;10.864;2022-10-16T13:35:25;18.40;99.90
14962;DHT22;56489;53.166;10.864;2022-10-16T13:38:14;18.50;99.90
14962;DHT22;56489;53.166;10.864;2022-10-16T13:43:22;18.50;99.90
14962;DHT22;56489;53.166;10.864;2022-10-16T13:45:58;18.50;99.90
14962;DHT22;56489;53.166;10.864;2022-10-16T13:48:26;18.40;99.90
14962;DHT22;56489;53.166;10.864;2022-10-16T13:51:04;18.20;99.90
14962;DHT22;56489;53.166;10.864;2022-10-16T13:53:32;18.10;99.90
14962;DHT22;56489;53.166;10.864;2022-10-16T13:56:02;17.90;99.90
14962;DHT22;56489;53.166;10.864;2022-10-16T13:58:29;17.70;99.90
14962;DHT22;56489;53.166;10.864;2022-10-16T14:01:02;17.70;99.90
14962;DHT22;56489;53.166;10.864;2022-10-16T14:03:30;17.60;99.90
14962;DHT22;56489;53.166;10.864;2022-10-16T14:06:00;17.60;99.90
14962;DHT22;56489;53.166;10.864;2022-10-16T14:08:29;17.50;99.90
14962;DHT22;56489;53.166;10.864;2022-10-16T14:11:01;17.50;99.90
14962;DHT22;56489;53.166;10.864;2022-10-16T14:13:43;17.50;99.90
14962;DHT22;56489;53.166;10.864;2022-10-16T14:16:17;17.50;99.90
14962;DHT22;56489;53.166;10.864;2022-10-16T14:18:49;17.50;99.90
14962;DHT22;56489;53.166;10.864;2022-10-16T14:21:20;17.40;99.90
14962;DHT22;56489;53.166;10.864;2022-10-16T14:23:47;17.30;99.90
14962;DHT22;56489;53.166;10.864;2022-10-16T14:26:16;17.30;99.90
14962;DHT22;56489;53.166;10.864;2022-10-16T14:28:45;17.30;99.90
14962;DHT22;56489;53.166;10.864;2022-10-16T14:31:26;17.30;99.90
14962;DHT22;56489;53.166;10.864;2022-10-16T14:33:53;17.40;99.90
14962;DHT22;56489;53.166;10.864;2022-10-16T14:36:21;17.40;99.90
14962;DHT22;56489;53.166;10.864;2022-10-16T14:39:06;17.50;99.90
14962;DHT22;56489;53.166;10.864;2022-10-16T14:41:48;17.50;99.90
14962;DHT22;56489;53.166;10.864;2022-10-16T14:44:17;17.60;99.90
14962;DHT22;56489;53.166;10.864;2022-10-16T14:46:45;17.60;99.90
14962;DHT22;56489;53.166;10.864;2022-10-16T14:49:18;17.60;99.90
14962;DHT22;56489;53.166;10.864;2022-10-16T14:51:47;17.50;99.90
14962;DHT22;56489;53.166;10.864;2022-10-16T14:54:15;17.50;99.90
14962;DHT22;56489;53.166;10.864;2022-10-16T14:56:49;17.50;99.90
14962;DHT22;56489;53.166;10.864;2022-10-16T14:59:31;17.40;99.90
14962;DHT22;56489;53.166;10.864;2022-10-16T15:01:59;17.40;99.90
14962;DHT22;56489;53.166;10.864;2022-10-16T15:04:26;17.30;99.90
14962;DHT22;56489;53.166;10.864;2022-10-16T15:06:53;17.30;99.90
14962;DHT22;56489;53.166;10.864;2022-10-16T15:09:20;17.30;99.90
14962;DHT22;56489;53.166;10.864;2022-10-16T15:11:47;17.30;99.90
14962;DHT22;56489;53.166;10.864;2022-10-16T15:14:14;17.30;99.90
14962;DHT22;56489;53.166;10.864;2022-10-16T15:16:46;17.30;99.90
14962;DHT22;56489;53.166;10.864;2022-10-16T15:19:12;17.20;99.90
14962;DHT22;56489;53.166;10.864;2022-10-16T15:21:39;17.10;99.90
14962;DHT22;56489;53.166;10.864;2022-10-16T15:24:11;17.00;99.90
14962;DHT22;56489;53.166;10.864;2022-10-16T15:26:44;16.90;99.90
14962;DHT22;56489;53.166;10.864;2022-10-16T15:29:13;16.80;99.90
14962;DHT22;56489;53.166;10.864;2022-10-16T15:31:40;16.60;99.90
14962;DHT22;56489;53.166;10.864;2022-10-16T15:34:09;16.50;99.90
14962;DHT22;56489;53.166;10.864;2022-10-16T15:36:38;16.40;99.90
14962;DHT22;56489;53.166;10.864;2022-10-16T15:39:25;16.30;99.90
14962;DHT22;56489;53.166;10.864;2022-10-16T15:41:52;16.20;99.90
14962;DHT22;56489;53.166;10.864;2022-10-16T15:44:20;16.10;99.90
14962;DHT22;56489;53.166;10.864;2022-10-16T15:46:50;16.00;99.90
14962;DHT22;56489;53.166;10.864;2022-10-16T15:49:16;15.90;99.90
14962;DHT22;56489;53.166;10.864;2022-10-16T15:51:44;15.80;99.90
14962;DHT22;56489;53.166;10.864;2022-10-16T15:54:12;15.70;99.90
14962;DHT22;56489;53.166;10.864;2022-10-16T15:56:39;15.60;99.90
14962;DHT22;56489;53.166;10.864;2022-10-16T15:59:06;15.50;99.90
14962;DHT22;56489;53.166;10.864;2022-10-16T16:01:33;15.50;99.90
14962;DHT22;56489;53.166;10.864;2022-10-16T16:04:00;15.40;99.90
14962;DHT22;56489;53.166;10.864;2022-10-16T16:06:41;15.30;99.90
14962;DHT22;56489;53.166;10.864;2022-10-16T16:09:11;15.10;99.90
14962;DHT22;56489;53.166;10.864;2022-10-16T16:11:39;15.00;99.90
14962;DHT22;56489;53.166;10.864;2022-10-16T16:14:06;14.90;99.90
14962;DHT22;56489;53.166;10.864;2022-10-16T16:16:33;14.70;99.90
14962;DHT22;56489;53.166;10.864;2022-10-16T16:19:05;14.60;99.90
14962;DHT22;56489;53.166;10.864;2022-10-16T16:21:37;14.40;99.90
14962;DHT22;56489;53.166;10.864;2022-10-16T16:24:04;14.30;99.90
14962;DHT22;56489;53.166;10.864;2022-10-16T16:26:35;14.20;99.90
14962;DHT22;56489;53.166;10.864;2022-10-16T16:29:06;14.10;99.90
14962;DHT22;56489;53.166;10.864;2022-10-16T16:31:33;13.90;99.90
14962;DHT22;56489;53.166;10.864;2022-10-16T16:34:01;13.80;99.90
14962;DHT22;56489;53.166;10.864;2022-10-16T16:36:27;13.60;99.90
14962;DHT22;56489;53.166;10.864;2022-10-16T16:38:54;13.60;99.90
14962;DHT22;56489;53.166;10.864;2022-10-16T16:41:24;13.40;99.90
14962;DHT22;56489;53.166;10.864;2022-10-16T16:43:53;13.30;99.90
14962;DHT22;56489;53.166;10.864;2022-10-16T16:46:21;13.20;99.90
14962;DHT22;56489;53.166;10.864;2022-10-16T16:48:48;13.10;99.90
14962;DHT22;56489;53.166;10.864;2022-10-16T16:51:17;13.00;99.90
14962;DHT22;56489;53.166;10.864;2022-10-16T16:53:49;12.90;99.90
14962;DHT22;56489;53.166;10.864;2022-10-16T16:56:17;12.80;99.90
14962;DHT22;56489;53.166;10.864;2022-10-16T16:58:49;12.70;99.90
14962;DHT22;56489;53.166;10.864;2022-10-16T17:01:17;12.60;99.90
14962;DHT22;56489;53.166;10.864;2022-10-16T17:03:49;12.50;99.90
14962;DHT22;56489;53.166;10.864;2022-10-16T17:06:18;12.40;99.90
14962;DHT22;56489;53.166;10.864;2022-10-16T17:08:47;12.40;99.90